ePrivacy and GPDR Cookie Consent by Cookie Consent
EmailTwitter


Surface observations / United States / KJFK (74486)

Regions: Quebec | Canada | USA | Europe | France | UK | Elsewhere
Station
Display
Info & Location for KJFK (74486) | Help decoding METAR

Weather Conditions observed on 2021/05/08 at 03:51 UTC at NEW YORK/JF KENN, NY (KJFK)

Sky conditions: partly cloudy.

Temperature: 10.0 Celsius.

Dewpoint: 5.0 Celsius.

Relative Humidity: 71%

Winds: East at 11 km/h or 6 knots.

Mean Sea level Pressure: 101.20 kilopascals.

Altimeter Setting (QNH): 101.22 kilopascals or 29.89 inches of mercury.

Horizontal visibility: 10.00 statute miles or 16.00 kilometers.

Height of the Ceiling: 2591 metres ( 8500 feet ).

Coded METAR:

KJFK 080351Z 09006KT 10SM FEW040 BKN085 BKN110 BKN150 10/05 A2989 RMK AO2

SLP120 T01000050=